createdAt,value
2022-11-26T00:00:53.442Z,3.97
2022-11-26T00:03:52.403Z,4.00
2022-11-26T00:06:49.277Z,3.99
2022-11-26T00:09:46.166Z,4.04
2022-11-26T00:12:43.246Z,4.02
2022-11-26T00:15:40.101Z,4.03
2022-11-26T00:18:36.973Z,4.05
2022-11-26T00:21:40.988Z,3.97
2022-11-26T00:24:38.309Z,3.89
2022-11-26T00:27:35.306Z,3.99
2022-11-26T00:30:32.128Z,3.99
2022-11-26T00:33:30.337Z,3.99
2022-11-26T00:36:33.066Z,3.99
2022-11-26T00:39:29.946Z,3.94
2022-11-26T00:42:26.845Z,4.05
2022-11-26T00:45:30.161Z,3.96
2022-11-26T00:48:27.038Z,3.90
2022-11-26T00:51:27.545Z,3.95
2022-11-26T00:54:24.572Z,4.00
2022-11-26T00:57:21.520Z,4.00
2022-11-26T01:00:23.611Z,3.88
2022-11-26T01:03:20.530Z,3.80
2022-11-26T01:06:45.275Z,3.68
2022-11-26T01:09:45.145Z,3.68
2022-11-26T01:12:42.229Z,3.66
2022-11-26T01:15:39.129Z,3.59
2022-11-26T01:18:36.113Z,3.45
2022-11-26T01:21:33.451Z,3.53
2022-11-26T01:24:30.418Z,3.36
2022-11-26T01:27:27.416Z,3.48
2022-11-26T01:30:27.503Z,3.38
2022-11-26T01:33:24.463Z,3.44
2022-11-26T01:36:31.904Z,3.42
2022-11-26T01:39:28.885Z,3.45
2022-11-26T01:42:41.813Z,3.47
2022-11-26T01:45:39.127Z,3.53
2022-11-26T01:48:36.095Z,3.51
2022-11-26T01:51:33.114Z,3.51
2022-11-26T01:54:32.213Z,3.60
2022-11-26T01:57:32.845Z,3.49
2022-11-26T02:00:29.806Z,3.53
2022-11-26T02:03:31.695Z,3.54
2022-11-26T02:06:33.281Z,3.56
2022-11-26T02:09:31.064Z,3.64
2022-11-26T02:12:28.732Z,3.65
2022-11-26T02:15:38.043Z,3.59
2022-11-26T02:18:42.016Z,3.61
2022-11-26T02:21:48.542Z,3.56
2022-11-26T02:25:03.638Z,3.65
2022-11-26T02:28:34.464Z,3.64
2022-11-26T02:32:00.192Z,3.66
2022-11-26T02:35:09.734Z,3.57
2022-11-26T02:38:15.500Z,3.61
2022-11-26T02:41:12.427Z,3.66
2022-11-26T02:44:10.048Z,3.70
2022-11-26T02:47:12.994Z,3.70
2022-11-26T02:50:18.507Z,3.69
2022-11-26T02:53:19.166Z,3.69
2022-11-26T02:56:27.644Z,3.73
2022-11-26T02:59:24.865Z,3.65
2022-11-26T03:03:23.028Z,3.81
2022-11-26T03:06:22.093Z,3.74
2022-11-26T03:09:18.975Z,3.75
2022-11-26T03:12:15.903Z,3.80
2022-11-26T03:15:13.125Z,3.75
2022-11-26T03:18:10.168Z,3.79
2022-11-26T03:21:07.572Z,3.80
2022-11-26T03:24:04.790Z,3.74
2022-11-26T03:27:01.683Z,3.74
2022-11-26T03:29:58.789Z,3.79
2022-11-26T03:32:56.377Z,3.79
2022-11-26T03:35:53.236Z,3.84
2022-11-26T03:38:50.139Z,3.86
2022-11-26T03:41:47.058Z,3.81
2022-11-26T03:44:44.086Z,3.85
2022-11-26T03:47:40.975Z,3.84
2022-11-26T03:50:37.901Z,3.87
2022-11-26T03:53:34.828Z,3.90
2022-11-26T03:56:31.708Z,3.88
2022-11-26T03:59:28.781Z,3.93
2022-11-26T04:02:25.622Z,3.87
2022-11-26T04:05:22.495Z,3.82
2022-11-26T04:08:19.387Z,3.84
2022-11-26T04:11:16.325Z,3.83
2022-11-26T04:14:13.222Z,3.82
2022-11-26T04:17:10.175Z,3.77
2022-11-26T04:20:08.107Z,3.87
2022-11-26T04:23:05.611Z,3.83
2022-11-26T04:26:02.604Z,3.84
2022-11-26T04:28:59.799Z,3.82
2022-11-26T04:31:56.755Z,3.83
2022-11-26T04:34:53.641Z,3.78
2022-11-26T04:37:50.538Z,3.83
2022-11-26T04:40:48.408Z,3.86
2022-11-26T04:43:45.490Z,3.84
2022-11-26T04:46:42.312Z,3.79
2022-11-26T04:49:39.164Z,3.96
2022-11-26T04:52:36.265Z,3.94
2022-11-26T04:55:33.121Z,3.88
2022-11-26T04:58:30.027Z,3.84
2022-11-26T05:01:27.108Z,3.94
2022-11-26T05:04:24.009Z,3.96
2022-11-26T05:07:20.968Z,3.96
2022-11-26T05:10:18.282Z,3.93
2022-11-26T05:13:15.150Z,3.93
2022-11-26T05:16:12.083Z,3.98
2022-11-26T05:19:08.962Z,3.96
2022-11-26T05:22:05.877Z,3.97
2022-11-26T05:25:03.941Z,3.97
2022-11-26T05:28:01.130Z,3.95
2022-11-26T05:31:03.738Z,3.97
2022-11-26T05:34:00.657Z,4.00
2022-11-26T05:36:57.542Z,3.95
2022-11-26T05:39:54.472Z,3.96
2022-11-26T05:42:51.335Z,3.98
2022-11-26T05:45:48.200Z,3.95
2022-11-26T05:48:45.390Z,3.96
2022-11-26T05:51:42.263Z,3.98
2022-11-26T05:54:39.387Z,3.99
2022-11-26T05:57:37.982Z,3.94
2022-11-26T06:00:35.048Z,3.96
2022-11-26T06:03:31.958Z,3.91
2022-11-26T06:06:28.899Z,3.92
2022-11-26T06:09:25.784Z,3.93
2022-11-26T06:12:22.612Z,3.94
2022-11-26T06:15:19.595Z,3.85
2022-11-26T06:18:17.302Z,3.84
2022-11-26T06:21:14.250Z,3.84
2022-11-26T06:24:11.726Z,4.02
2022-11-26T06:27:08.581Z,3.84
2022-11-26T06:30:08.230Z,3.84
2022-11-26T06:33:05.072Z,3.81
2022-11-26T06:36:04.172Z,3.77
2022-11-26T06:39:01.010Z,3.76
2022-11-26T06:41:57.814Z,3.65
2022-11-26T06:44:59.461Z,3.57
2022-11-26T06:47:56.781Z,3.61
2022-11-26T06:50:53.726Z,3.61
2022-11-26T06:53:50.558Z,3.56
2022-11-26T06:56:47.766Z,3.60
2022-11-26T06:59:44.983Z,3.49
2022-11-26T07:02:42.576Z,3.54
2022-11-26T07:05:39.558Z,3.54
2022-11-26T07:08:36.391Z,3.53
2022-11-26T07:11:33.996Z,3.52
2022-11-26T07:14:30.829Z,3.62
2022-11-26T07:17:29.063Z,3.60
2022-11-26T07:20:26.690Z,3.54
2022-11-26T07:23:23.828Z,3.79
2022-11-26T07:26:23.272Z,3.81
2022-11-26T07:29:20.093Z,3.78
2022-11-26T07:32:16.901Z,3.86
2022-11-26T07:35:13.802Z,3.94
2022-11-26T07:38:10.812Z,4.02
2022-11-26T07:41:11.490Z,4.09
2022-11-26T07:44:13.547Z,4.00
2022-11-26T07:47:10.452Z,4.15
2022-11-26T07:50:08.784Z,4.26
2022-11-26T07:53:05.676Z,4.33
2022-11-26T07:56:06.307Z,4.31
2022-11-26T07:59:03.928Z,4.31
2022-11-26T08:02:00.832Z,4.38
2022-11-26T08:04:57.802Z,4.26
2022-11-26T08:07:54.779Z,4.42
2022-11-26T08:10:51.632Z,4.42
2022-11-26T08:13:49.303Z,4.36
2022-11-26T08:16:46.181Z,4.28
2022-11-26T08:19:43.071Z,4.42
2022-11-26T08:22:40.064Z,4.48
2022-11-26T08:25:45.185Z,4.51
2022-11-26T08:28:55.540Z,4.47
2022-11-26T08:31:52.483Z,4.61
2022-11-26T08:34:49.363Z,4.67
2022-11-26T08:37:46.169Z,4.91
2022-11-26T08:40:43.083Z,5.15
2022-11-26T08:44:05.007Z,5.33
2022-11-26T08:46:57.654Z,4.93
2022-11-26T08:49:55.053Z,5.07
2022-11-26T08:52:51.887Z,5.01
2022-11-26T08:56:00.151Z,4.88
2022-11-26T08:58:57.881Z,4.95
2022-11-26T09:01:54.829Z,4.96
2022-11-26T09:04:52.009Z,4.93
2022-11-26T09:07:49.274Z,4.94
2022-11-26T09:10:55.200Z,4.97
2022-11-26T09:13:53.433Z,4.93
2022-11-26T09:16:50.975Z,4.71
2022-11-26T09:19:47.853Z,4.82
2022-11-26T09:22:44.672Z,4.90
2022-11-26T09:25:41.497Z,4.97
2022-11-26T09:28:39.351Z,4.95
2022-11-26T09:31:36.326Z,5.00
2022-11-26T09:34:33.350Z,4.91
2022-11-26T09:37:31.922Z,5.10
2022-11-26T09:41:05.291Z,5.49
2022-11-26T09:44:25.689Z,5.09
2022-11-26T09:47:28.483Z,5.24
2022-11-26T09:50:32.629Z,5.23
2022-11-26T09:53:39.431Z,5.28
2022-11-26T09:56:37.753Z,5.40
2022-11-26T09:59:38.267Z,5.46
2022-11-26T10:02:38.209Z,5.52
2022-11-26T10:06:23.984Z,6.25
2022-11-26T10:09:52.791Z,6.13
2022-11-26T10:13:17.261Z,6.25
2022-11-26T10:16:41.949Z,6.42
2022-11-26T10:19:58.178Z,6.29
2022-11-26T10:23:13.352Z,6.48
2022-11-26T10:26:20.104Z,6.40
2022-11-26T10:29:28.061Z,6.56
2022-11-26T10:32:38.525Z,6.24
2022-11-26T10:35:35.407Z,6.14
2022-11-26T10:38:32.394Z,6.36
2022-11-26T10:41:35.217Z,6.34
2022-11-26T10:44:40.585Z,6.32
2022-11-26T10:47:37.815Z,6.07
2022-11-26T10:50:50.533Z,6.25
2022-11-26T10:53:52.525Z,6.33
2022-11-26T10:56:53.203Z,6.52
2022-11-26T10:59:53.512Z,6.27
2022-11-26T11:02:50.673Z,6.72
2022-11-26T11:05:47.844Z,6.53
2022-11-26T11:08:50.647Z,6.64
2022-11-26T11:11:47.535Z,6.38
2022-11-26T11:14:46.486Z,6.18
2022-11-26T11:17:45.387Z,6.28
2022-11-26T11:20:51.766Z,6.07
2022-11-26T11:27:21.256Z,6.06
2022-11-26T11:30:27.450Z,6.07
2022-11-26T11:33:28.522Z,6.02
2022-11-26T11:36:29.096Z,5.95
2022-11-26T11:39:32.992Z,5.92
2022-11-26T11:42:31.008Z,5.94
2022-11-26T11:45:42.285Z,6.11
2022-11-26T11:48:53.299Z,6.17
2022-11-26T11:52:34.488Z,6.22
2022-11-26T11:56:02.441Z,6.21
2022-11-26T11:59:58.134Z,6.22
2022-11-26T12:03:12.462Z,6.16
2022-11-26T12:07:00.287Z,6.87
2022-11-26T12:10:34.015Z,6.97
2022-11-26T12:13:46.264Z,6.93
2022-11-26T12:16:48.215Z,6.67
2022-11-26T12:19:54.584Z,6.71
2022-11-26T12:23:27.441Z,6.69
2022-11-26T12:26:36.808Z,6.36
2022-11-26T12:29:47.197Z,6.67
2022-11-26T12:33:01.686Z,6.30
2022-11-26T12:36:07.618Z,6.36
2022-11-26T12:39:19.103Z,6.06
2022-11-26T12:42:45.355Z,6.11
2022-11-26T12:45:56.372Z,6.33
2022-11-26T12:48:59.592Z,6.07
2022-11-26T12:52:33.812Z,5.97
2022-11-26T12:55:35.928Z,5.89
2022-11-26T12:58:44.911Z,5.98
2022-11-26T13:01:41.796Z,6.02
2022-11-26T13:04:38.780Z,5.90
2022-11-26T13:08:05.990Z,5.73
2022-11-26T13:11:19.364Z,5.69
2022-11-26T13:15:11.533Z,5.87
2022-11-26T13:18:22.824Z,5.73
2022-11-26T13:21:44.122Z,5.82
2022-11-26T13:25:31.197Z,5.85
2022-11-26T13:28:52.313Z,5.80
2022-11-26T13:32:25.999Z,5.83
2022-11-26T13:36:14.642Z,5.90
2022-11-26T13:39:23.180Z,5.90
2022-11-26T13:42:57.580Z,5.71
2022-11-26T13:46:22.666Z,5.67
2022-11-26T13:49:28.567Z,5.64
2022-11-26T13:52:48.563Z,5.77
2022-11-26T13:55:59.862Z,5.82
2022-11-26T13:59:04.140Z,5.75
2022-11-26T14:02:32.949Z,5.43
2022-11-26T14:06:08.405Z,5.19
2022-11-26T14:09:06.116Z,5.45
2022-11-26T14:12:02.944Z,5.38
2022-11-26T14:14:59.751Z,5.23
2022-11-26T14:17:57.010Z,5.16
2022-11-26T14:21:00.509Z,5.26
2022-11-26T14:23:59.592Z,5.20
2022-11-26T14:26:56.543Z,5.28
2022-11-26T14:29:58.250Z,5.42
2022-11-26T14:33:12.066Z,5.55
2022-11-26T14:36:24.995Z,5.33
2022-11-26T14:39:24.476Z,5.30
2022-11-26T14:42:21.289Z,5.34
2022-11-26T14:45:21.060Z,5.35
2022-11-26T14:48:29.502Z,5.42
2022-11-26T14:51:27.152Z,5.36
2022-11-26T14:54:38.598Z,5.32
2022-11-26T14:57:50.079Z,5.23
2022-11-26T15:01:23.082Z,5.18
2022-11-26T15:04:29.950Z,5.33
2022-11-26T15:07:29.548Z,5.28
2022-11-26T15:10:32.561Z,5.21
2022-11-26T15:13:41.509Z,5.05
2022-11-26T15:16:41.417Z,5.21
2022-11-26T15:19:40.809Z,5.17
2022-11-26T15:22:44.258Z,5.11
2022-11-26T15:25:49.982Z,5.13
2022-11-26T15:28:46.829Z,5.05
2022-11-26T15:31:43.751Z,4.99
2022-11-26T15:34:41.005Z,5.09
2022-11-26T15:37:38.092Z,4.95
2022-11-26T15:40:50.317Z,4.99
2022-11-26T15:43:51.654Z,4.98
2022-11-26T15:46:51.311Z,4.98
2022-11-26T15:49:54.888Z,5.03
2022-11-26T15:52:59.255Z,5.03
2022-11-26T15:55:56.349Z,5.00
2022-11-26T15:58:57.680Z,4.94
2022-11-26T16:01:55.065Z,4.91
2022-11-26T16:04:59.144Z,5.00
2022-11-26T16:07:58.953Z,5.08
2022-11-26T16:11:08.623Z,4.89
2022-11-26T16:14:38.393Z,4.95
2022-11-26T16:17:36.917Z,4.91
2022-11-26T16:20:33.813Z,5.02
2022-11-26T16:23:31.087Z,4.90
2022-11-26T16:26:29.393Z,4.68
2022-11-26T16:29:28.247Z,4.50
2022-11-26T16:32:25.649Z,4.48
2022-11-26T16:35:44.699Z,4.52
2022-11-26T16:38:42.550Z,4.08
2022-11-26T16:41:39.383Z,4.04
2022-11-26T16:44:36.213Z,3.84
2022-11-26T16:47:39.329Z,3.75
2022-11-26T16:50:36.193Z,3.56
2022-11-26T16:53:33.484Z,3.43
2022-11-26T16:56:37.375Z,3.45
2022-11-26T16:59:34.261Z,3.22
2022-11-26T17:02:33.410Z,3.24
2022-11-26T17:05:30.482Z,3.08
2022-11-26T17:08:29.814Z,3.07
2022-11-26T17:11:27.027Z,3.01
2022-11-26T17:14:23.866Z,2.94
2022-11-26T17:17:28.936Z,2.73
2022-11-26T17:20:25.825Z,2.91
2022-11-26T17:23:22.688Z,2.74
2022-11-26T17:26:22.543Z,2.70
2022-11-26T17:29:19.398Z,2.61
2022-11-26T17:32:19.374Z,2.48
2022-11-26T17:35:16.579Z,2.46
2022-11-26T17:38:21.675Z,2.36
2022-11-26T17:41:18.987Z,2.40
2022-11-26T17:44:15.811Z,2.35
2022-11-26T17:47:17.852Z,2.17
2022-11-26T17:50:22.140Z,2.08
2022-11-26T17:53:19.044Z,2.10
2022-11-26T17:56:20.346Z,2.35
2022-11-26T17:59:20.447Z,2.20
2022-11-26T18:02:18.749Z,2.02
2022-11-26T18:05:15.762Z,2.11
2022-11-26T18:08:12.594Z,2.00
2022-11-26T18:11:11.909Z,2.02
2022-11-26T18:14:08.771Z,2.04
2022-11-26T18:17:08.414Z,1.99
2022-11-26T18:20:06.442Z,2.06
2022-11-26T18:23:03.478Z,1.98
2022-11-26T18:26:01.013Z,2.10
2022-11-26T18:28:58.394Z,2.18
2022-11-26T18:31:55.212Z,2.01
2022-11-26T18:34:52.123Z,1.91
2022-11-26T18:37:48.999Z,2.06
2022-11-26T18:40:45.822Z,1.93
2022-11-26T18:43:42.925Z,2.34
2022-11-26T18:46:39.818Z,2.27
2022-11-26T18:49:36.966Z,2.28
2022-11-26T18:52:33.960Z,2.56
2022-11-26T18:55:30.812Z,2.27
2022-11-26T18:58:27.739Z,2.14
2022-11-26T19:01:31.956Z,2.14
2022-11-26T19:04:28.867Z,2.12
2022-11-26T19:07:25.723Z,2.00
2022-11-26T19:10:22.639Z,2.11
2022-11-26T19:13:19.463Z,2.16
2022-11-26T19:16:21.609Z,2.15
2022-11-26T19:19:18.831Z,2.10
2022-11-26T19:22:15.639Z,2.08
2022-11-26T19:25:12.740Z,1.96
2022-11-26T19:28:10.291Z,2.02
2022-11-26T19:31:11.095Z,2.04
2022-11-26T19:34:14.365Z,1.94
2022-11-26T19:37:11.208Z,2.05
2022-11-26T19:40:09.108Z,2.03
2022-11-26T19:43:06.009Z,1.99
2022-11-26T19:46:19.398Z,2.04
2022-11-26T19:49:17.460Z,2.00
2022-11-26T19:52:14.659Z,1.96
2022-11-26T19:55:12.386Z,1.97
2022-11-26T19:58:09.214Z,1.88
2022-11-26T20:01:09.225Z,2.03
2022-11-26T20:04:15.635Z,1.97
2022-11-26T20:07:12.506Z,1.78
2022-11-26T20:10:10.007Z,1.70
2022-11-26T20:13:08.088Z,1.63
2022-11-26T20:16:15.164Z,1.74
2022-11-26T20:19:13.277Z,1.75
2022-11-26T20:22:10.089Z,1.63
2022-11-26T20:25:07.593Z,1.56
2022-11-26T20:28:05.063Z,1.60
2022-11-26T20:31:05.318Z,1.63
2022-11-26T20:34:04.077Z,1.79
2022-11-26T20:37:01.870Z,1.73
2022-11-26T20:39:58.824Z,1.65
2022-11-26T20:42:55.630Z,1.66
2022-11-26T20:46:06.902Z,1.65
2022-11-26T20:49:06.167Z,1.55
2022-11-26T20:52:03.052Z,1.55
2022-11-26T20:54:59.871Z,1.56
2022-11-26T20:57:56.676Z,1.49
2022-11-26T21:00:54.991Z,1.51
2022-11-26T21:03:52.830Z,1.39
2022-11-26T21:06:49.781Z,1.45
2022-11-26T21:09:47.642Z,1.40
2022-11-26T21:12:44.446Z,1.22
2022-11-26T21:15:42.851Z,1.08
2022-11-26T21:18:39.706Z,1.12
2022-11-26T21:21:36.574Z,1.21
2022-11-26T21:24:33.768Z,1.14
2022-11-26T21:27:32.588Z,1.12
2022-11-26T21:30:29.431Z,1.09
2022-11-26T21:33:26.394Z,1.08
2022-11-26T21:36:24.409Z,1.03
2022-11-26T21:39:21.272Z,1.12
2022-11-26T21:42:18.108Z,1.16
2022-11-26T21:45:14.938Z,1.15
2022-11-26T21:48:11.796Z,1.05
2022-11-26T21:51:11.375Z,0.96
2022-11-26T21:54:09.289Z,0.96
2022-11-26T21:57:06.108Z,1.10
2022-11-26T22:00:03.645Z,1.05
2022-11-26T22:03:00.498Z,1.06
2022-11-26T22:05:59.673Z,1.04
2022-11-26T22:08:56.801Z,0.97
2022-11-26T22:11:53.610Z,1.04
2022-11-26T22:14:50.436Z,0.91
2022-11-26T22:17:47.283Z,0.96
2022-11-26T22:20:54.228Z,0.97
2022-11-26T22:23:52.494Z,1.01
2022-11-26T22:26:49.387Z,1.02
2022-11-26T22:29:46.301Z,0.94
2022-11-26T22:32:43.123Z,0.95
2022-11-26T22:35:40.115Z,0.80
2022-11-26T22:38:38.739Z,0.90
2022-11-26T22:41:35.571Z,0.85
2022-11-26T22:44:33.941Z,0.75
2022-11-26T22:47:30.748Z,0.84
2022-11-26T22:50:27.562Z,0.84
2022-11-26T22:53:24.449Z,0.88
2022-11-26T22:56:22.265Z,0.94
2022-11-26T22:59:19.102Z,0.94
2022-11-26T23:02:16.013Z,0.93
2022-11-26T23:05:12.927Z,1.03
2022-11-26T23:08:11.075Z,0.99
2022-11-26T23:11:12.875Z,0.96
2022-11-26T23:14:11.910Z,0.97
2022-11-26T23:17:08.853Z,1.08
2022-11-26T23:20:06.700Z,0.87
2022-11-26T23:23:04.840Z,0.82
2022-11-26T23:26:03.442Z,0.90
2022-11-26T23:29:02.282Z,0.96
2022-11-26T23:31:59.183Z,0.99
2022-11-26T23:34:56.105Z,0.91
2022-11-26T23:37:52.908Z,0.98
2022-11-26T23:41:02.416Z,1.42
2022-11-26T23:43:59.548Z,1.03
2022-11-26T23:46:56.336Z,1.02
2022-11-26T23:49:56.168Z,1.01
2022-11-26T23:52:55.164Z,1.00
2022-11-26T23:55:52.055Z,1.10
2022-11-26T23:58:54.555Z,1.07
